createdAt,value
2023-01-08T00:00:27.631Z,998.48
2023-01-08T00:01:27.598Z,998.53
2023-01-08T00:02:27.614Z,998.52
2023-01-08T00:03:27.649Z,998.58
2023-01-08T00:04:27.552Z,998.49
2023-01-08T00:05:27.544Z,998.47
2023-01-08T00:06:27.513Z,998.45
2023-01-08T00:07:27.532Z,998.50
2023-01-08T00:08:27.513Z,998.48
2023-01-08T00:09:27.501Z,998.45
2023-01-08T00:10:27.473Z,998.48
2023-01-08T00:11:27.496Z,998.45
2023-01-08T00:12:27.452Z,998.41
2023-01-08T00:13:27.503Z,998.43
2023-01-08T00:14:27.463Z,998.37
2023-01-08T00:15:27.436Z,998.39
2023-01-08T00:16:27.509Z,998.35
2023-01-08T00:17:27.409Z,998.29
2023-01-08T00:18:27.488Z,998.30
2023-01-08T00:19:27.374Z,998.25
2023-01-08T00:20:27.356Z,998.20
2023-01-08T00:21:27.366Z,998.14
2023-01-08T00:22:27.353Z,998.09
2023-01-08T00:23:27.345Z,998.03
2023-01-08T00:24:31.173Z,997.99
2023-01-08T00:25:27.307Z,998.04
2023-01-08T00:26:27.320Z,998.03
2023-01-08T00:27:27.338Z,998.05
2023-01-08T00:28:27.292Z,998.05
2023-01-08T00:29:27.304Z,998.07
2023-01-08T00:30:27.299Z,998.03
2023-01-08T00:31:27.251Z,998.02
2023-01-08T00:32:27.286Z,998.08
2023-01-08T00:33:27.232Z,998.02
2023-01-08T00:34:27.211Z,998.08
2023-01-08T00:35:27.241Z,998.04
2023-01-08T00:36:27.223Z,998.04
2023-01-08T00:37:27.190Z,998.07
2023-01-08T00:38:27.170Z,997.99
2023-01-08T00:39:27.215Z,998.04
2023-01-08T00:40:27.143Z,997.98
2023-01-08T00:41:27.192Z,997.99
2023-01-08T00:42:27.131Z,998.00
2023-01-08T00:43:27.133Z,997.99
2023-01-08T00:44:27.104Z,998.06
2023-01-08T00:45:27.091Z,997.96
2023-01-08T00:46:27.113Z,998.01
2023-01-08T00:47:27.091Z,998.00
2023-01-08T00:48:27.055Z,997.97
2023-01-08T00:49:27.054Z,998.02
2023-01-08T00:50:27.052Z,998.05
2023-01-08T00:51:27.031Z,997.99
2023-01-08T00:52:27.047Z,998.05
2023-01-08T00:53:27.012Z,997.95
2023-01-08T00:54:27.010Z,998.04
2023-01-08T00:55:26.991Z,997.92
2023-01-08T00:56:26.969Z,997.98
2023-01-08T00:57:26.958Z,997.93
2023-01-08T00:58:27.000Z,997.90
2023-01-08T00:59:26.949Z,997.93
2023-01-08T01:00:26.942Z,997.86
2023-01-08T01:01:27.046Z,997.94
2023-01-08T01:02:26.929Z,997.92
2023-01-08T01:03:26.923Z,997.90
2023-01-08T01:04:26.956Z,997.90
2023-01-08T01:05:26.910Z,997.92
2023-01-08T01:06:26.870Z,997.79
2023-01-08T01:07:26.874Z,997.84
2023-01-08T01:08:26.851Z,997.76
2023-01-08T01:09:26.899Z,997.83
2023-01-08T01:10:26.826Z,997.82
2023-01-08T01:11:26.819Z,997.81
2023-01-08T01:12:26.813Z,997.80
2023-01-08T01:13:26.826Z,997.80
2023-01-08T01:14:26.818Z,997.78
2023-01-08T01:15:26.792Z,997.80
2023-01-08T01:16:26.846Z,997.75
2023-01-08T01:17:26.792Z,997.77
2023-01-08T01:18:26.756Z,997.79
2023-01-08T01:19:26.733Z,997.84
2023-01-08T01:20:26.709Z,997.82
2023-01-08T01:21:26.714Z,997.76
2023-01-08T01:22:26.750Z,997.71
2023-01-08T01:23:26.694Z,997.71
2023-01-08T01:24:26.708Z,997.76
2023-01-08T01:25:26.687Z,997.76
2023-01-08T01:26:26.724Z,997.75
2023-01-08T01:27:26.648Z,997.70
2023-01-08T01:28:26.641Z,997.79
2023-01-08T01:29:26.628Z,997.80
2023-01-08T01:30:26.619Z,997.88
2023-01-08T01:31:26.639Z,997.88
2023-01-08T01:32:26.670Z,997.93
2023-01-08T01:33:26.631Z,997.97
2023-01-08T01:34:26.565Z,998.04
2023-01-08T01:35:26.561Z,997.94
2023-01-08T01:36:26.563Z,997.91
2023-01-08T01:37:26.568Z,997.79
2023-01-08T01:38:26.516Z,997.66
2023-01-08T01:39:26.523Z,997.62
2023-01-08T01:40:26.552Z,997.65
2023-01-08T01:41:26.505Z,997.75
2023-01-08T01:42:26.515Z,997.81
2023-01-08T01:43:26.479Z,997.82
2023-01-08T01:44:26.458Z,997.90
2023-01-08T01:45:26.447Z,997.88
2023-01-08T01:46:26.430Z,997.94
2023-01-08T01:47:26.417Z,997.88
2023-01-08T01:48:26.467Z,997.90
2023-01-08T01:49:26.396Z,997.89
2023-01-08T01:50:26.462Z,997.85
2023-01-08T01:51:26.377Z,997.82
2023-01-08T01:52:26.399Z,997.78
2023-01-08T01:53:26.393Z,997.74
2023-01-08T01:54:26.384Z,997.76
2023-01-08T01:55:26.370Z,997.79
2023-01-08T01:56:26.329Z,997.79
2023-01-08T01:57:26.317Z,997.73
2023-01-08T01:58:26.304Z,997.87
2023-01-08T01:59:26.338Z,997.82
2023-01-08T02:00:26.422Z,997.83
2023-01-08T02:01:26.365Z,997.92
2023-01-08T02:02:26.408Z,997.93
2023-01-08T02:03:26.257Z,997.94
2023-01-08T02:04:26.271Z,997.90
2023-01-08T02:05:26.245Z,997.91
2023-01-08T02:06:26.301Z,997.91
2023-01-08T02:07:26.227Z,997.92
2023-01-08T02:08:26.215Z,997.92
2023-01-08T02:09:26.189Z,997.90
2023-01-08T02:10:26.176Z,997.92
2023-01-08T02:11:26.219Z,997.88
2023-01-08T02:12:26.180Z,997.81
2023-01-08T02:13:26.166Z,997.85
2023-01-08T02:14:26.135Z,997.80
2023-01-08T02:15:26.118Z,997.79
2023-01-08T02:16:26.161Z,997.85
2023-01-08T02:17:26.145Z,997.85
2023-01-08T02:18:26.086Z,997.79
2023-01-08T02:19:26.071Z,997.78
2023-01-08T02:20:26.092Z,997.77
2023-01-08T02:21:26.064Z,997.70
2023-01-08T02:22:26.095Z,997.68
2023-01-08T02:23:26.054Z,997.69
2023-01-08T02:24:26.053Z,997.71
2023-01-08T02:25:26.014Z,997.70
2023-01-08T02:26:25.997Z,997.68
2023-01-08T02:27:26.010Z,997.67
2023-01-08T02:28:26.035Z,997.66
2023-01-08T02:29:26.060Z,997.65
2023-01-08T02:30:26.002Z,997.61
2023-01-08T02:31:26.019Z,997.62
2023-01-08T02:32:25.978Z,997.61
2023-01-08T02:33:25.987Z,997.68
2023-01-08T02:34:26.001Z,997.66
2023-01-08T02:35:25.912Z,997.62
2023-01-08T02:36:25.887Z,997.58
2023-01-08T02:37:25.901Z,997.53
2023-01-08T02:38:25.960Z,997.52
2023-01-08T02:39:25.886Z,997.48
2023-01-08T02:40:25.888Z,997.50
2023-01-08T02:41:25.844Z,997.44
2023-01-08T02:42:25.816Z,997.41
2023-01-08T02:43:25.823Z,997.44
2023-01-08T02:44:25.829Z,997.40
2023-01-08T02:45:25.908Z,997.45
2023-01-08T02:46:25.893Z,997.42
2023-01-08T02:47:25.799Z,997.35
2023-01-08T02:48:25.775Z,997.37
2023-01-08T02:49:25.758Z,997.33
2023-01-08T02:50:25.808Z,997.30
2023-01-08T02:51:27.466Z,997.32
2023-01-08T02:52:25.721Z,997.28
2023-01-08T02:53:25.723Z,997.28
2023-01-08T02:54:25.727Z,997.28
2023-01-08T02:55:25.793Z,997.25
2023-01-08T02:56:25.675Z,997.18
2023-01-08T02:57:25.709Z,997.08
2023-01-08T02:58:25.670Z,997.12
2023-01-08T02:59:25.697Z,997.10
2023-01-08T03:00:25.723Z,997.16
2023-01-08T03:01:25.760Z,997.08
2023-01-08T03:02:25.698Z,997.00
2023-01-08T03:03:25.652Z,996.99
2023-01-08T03:04:25.739Z,996.97
2023-01-08T03:05:25.652Z,997.03
2023-01-08T03:06:25.680Z,996.99
2023-01-08T03:07:25.575Z,996.94
2023-01-08T03:08:25.701Z,996.90
2023-01-08T03:09:25.584Z,996.87
2023-01-08T03:10:25.610Z,996.86
2023-01-08T03:11:25.571Z,996.89
2023-01-08T03:12:25.489Z,996.92
2023-01-08T03:13:25.568Z,996.88
2023-01-08T03:14:25.485Z,996.85
2023-01-08T03:15:25.563Z,996.86
2023-01-08T03:16:25.560Z,996.82
2023-01-08T03:17:25.563Z,996.78
2023-01-08T03:18:25.459Z,996.81
2023-01-08T03:19:25.462Z,996.82
2023-01-08T03:20:25.444Z,996.74
2023-01-08T03:21:25.469Z,996.74
2023-01-08T03:22:25.440Z,996.69
2023-01-08T03:23:25.448Z,996.73
2023-01-08T03:24:25.382Z,996.69
2023-01-08T03:25:25.367Z,996.67
2023-01-08T03:26:25.544Z,996.69
2023-01-08T03:27:25.342Z,996.68
2023-01-08T03:28:25.370Z,996.70
2023-01-08T03:29:25.361Z,996.62
2023-01-08T03:30:25.293Z,996.64
2023-01-08T03:31:25.338Z,996.68
2023-01-08T03:32:25.326Z,996.64
2023-01-08T03:33:25.294Z,996.60
2023-01-08T03:34:25.259Z,996.66
2023-01-08T03:35:25.271Z,996.67
2023-01-08T03:36:25.244Z,996.65
2023-01-08T03:37:25.278Z,996.64
2023-01-08T03:38:25.212Z,996.59
2023-01-08T03:39:25.215Z,996.64
2023-01-08T03:40:25.284Z,996.63
2023-01-08T03:41:25.191Z,996.71
2023-01-08T03:42:25.184Z,996.72
2023-01-08T03:43:25.187Z,996.70
2023-01-08T03:44:25.148Z,996.64
2023-01-08T03:45:25.145Z,996.60
2023-01-08T03:46:25.203Z,996.53
2023-01-08T03:47:25.113Z,996.59
2023-01-08T03:48:25.114Z,996.52
2023-01-08T03:49:25.110Z,996.56
2023-01-08T03:50:25.103Z,996.55
2023-01-08T03:51:25.083Z,996.60
2023-01-08T03:52:25.132Z,996.59
2023-01-08T03:53:25.072Z,996.60
2023-01-08T03:54:25.055Z,996.67
2023-01-08T03:55:25.033Z,996.58
2023-01-08T03:56:25.056Z,996.64
2023-01-08T03:57:25.016Z,996.62
2023-01-08T03:58:25.049Z,996.61
2023-01-08T03:59:25.036Z,996.58
2023-01-08T04:00:24.992Z,996.65
2023-01-08T04:01:25.064Z,996.59
2023-01-08T04:02:25.148Z,996.56
2023-01-08T04:03:24.952Z,996.57
2023-01-08T04:04:24.948Z,996.61
2023-01-08T04:05:24.927Z,996.55
2023-01-08T04:06:24.916Z,996.53
2023-01-08T04:07:24.950Z,996.56
2023-01-08T04:08:24.896Z,996.46
2023-01-08T04:09:24.880Z,996.42
2023-01-08T04:10:24.884Z,996.42
2023-01-08T04:11:24.860Z,996.44
2023-01-08T04:12:24.855Z,996.42
2023-01-08T04:13:24.903Z,996.42
2023-01-08T04:14:24.828Z,996.40
2023-01-08T04:15:24.837Z,996.44
2023-01-08T04:16:24.812Z,996.44
2023-01-08T04:17:24.790Z,996.45
2023-01-08T04:18:24.783Z,996.40
2023-01-08T04:19:24.813Z,996.43
2023-01-08T04:20:24.768Z,996.41
2023-01-08T04:21:24.762Z,996.51
2023-01-08T04:22:24.740Z,996.40
2023-01-08T04:23:24.757Z,996.47
2023-01-08T04:24:24.721Z,996.43
2023-01-08T04:25:24.749Z,996.46
2023-01-08T04:26:24.735Z,996.44
2023-01-08T04:27:24.715Z,996.42
2023-01-08T04:28:24.745Z,996.42
2023-01-08T04:29:24.660Z,996.44
2023-01-08T04:30:24.652Z,996.39
2023-01-08T04:31:24.692Z,996.34
2023-01-08T04:32:24.814Z,996.36
2023-01-08T04:33:24.615Z,996.36
2023-01-08T04:34:24.609Z,996.35
2023-01-08T04:35:24.589Z,996.37
2023-01-08T04:36:24.609Z,996.35
2023-01-08T04:37:24.622Z,996.29
2023-01-08T04:38:24.564Z,996.31
2023-01-08T04:39:24.631Z,996.30
2023-01-08T04:40:24.549Z,996.27
2023-01-08T04:41:24.585Z,996.21
2023-01-08T04:42:24.543Z,996.28
2023-01-08T04:43:24.528Z,996.27
2023-01-08T04:44:24.518Z,996.28
2023-01-08T04:45:24.479Z,996.28
2023-01-08T04:46:24.601Z,996.23
2023-01-08T04:47:24.477Z,996.22
2023-01-08T04:48:24.459Z,996.19
2023-01-08T04:49:24.464Z,996.15
2023-01-08T04:50:24.449Z,996.20
2023-01-08T04:51:24.462Z,996.18
2023-01-08T04:52:24.415Z,996.21
2023-01-08T04:53:24.399Z,996.25
2023-01-08T04:54:24.408Z,996.15
2023-01-08T04:55:24.378Z,996.25
2023-01-08T04:56:24.423Z,996.19
2023-01-08T04:57:24.418Z,996.12
2023-01-08T04:58:24.347Z,996.13
2023-01-08T04:59:24.357Z,996.12
2023-01-08T05:00:24.331Z,996.05
2023-01-08T05:01:24.485Z,996.08
2023-01-08T05:02:24.601Z,996.11
2023-01-08T05:03:24.322Z,996.11
2023-01-08T05:04:24.300Z,996.10
2023-01-08T05:05:24.289Z,996.07
2023-01-08T05:06:24.324Z,996.09
2023-01-08T05:07:24.330Z,996.14
2023-01-08T05:08:24.249Z,996.05
2023-01-08T05:09:24.224Z,996.02
2023-01-08T05:10:24.267Z,995.99
2023-01-08T05:11:24.216Z,995.98
2023-01-08T05:12:24.195Z,995.99
2023-01-08T05:13:24.190Z,995.97
2023-01-08T05:14:24.212Z,996.02
2023-01-08T05:15:24.176Z,996.04
2023-01-08T05:16:24.164Z,996.01
2023-01-08T05:17:24.160Z,996.01
2023-01-08T05:18:24.164Z,995.99
2023-01-08T05:19:24.133Z,996.07
2023-01-08T05:20:24.186Z,996.05
2023-01-08T05:21:24.088Z,996.02
2023-01-08T05:22:24.101Z,996.05
2023-01-08T05:23:24.078Z,996.06
2023-01-08T05:24:24.107Z,996.02
2023-01-08T05:25:24.066Z,996.04
2023-01-08T05:26:24.038Z,996.02
2023-01-08T05:27:24.029Z,996.01
2023-01-08T05:28:24.068Z,996.05
2023-01-08T05:29:24.043Z,996.11
2023-01-08T05:30:23.999Z,996.14
2023-01-08T05:31:24.036Z,996.08
2023-01-08T05:32:23.985Z,996.07
2023-01-08T05:33:24.237Z,996.03
2023-01-08T05:34:23.985Z,996.05
2023-01-08T05:35:24.522Z,996.11
2023-01-08T05:36:23.937Z,996.10
2023-01-08T05:37:23.932Z,996.11
2023-01-08T05:38:23.920Z,996.02
2023-01-08T05:39:23.915Z,996.00
2023-01-08T05:40:23.897Z,996.03
2023-01-08T05:41:23.910Z,996.01
2023-01-08T05:42:23.877Z,995.97
2023-01-08T05:43:23.879Z,995.96
2023-01-08T05:44:23.858Z,995.95
2023-01-08T05:45:23.854Z,995.94
2023-01-08T05:46:23.916Z,995.92
2023-01-08T05:47:23.824Z,995.96
2023-01-08T05:48:23.813Z,995.97
2023-01-08T05:49:23.803Z,995.93
2023-01-08T05:50:23.824Z,995.94
2023-01-08T05:51:23.808Z,995.95
2023-01-08T05:52:23.777Z,995.98
2023-01-08T05:53:23.799Z,995.98
2023-01-08T05:54:23.756Z,995.98
2023-01-08T05:55:23.731Z,996.03
2023-01-08T05:56:23.717Z,996.02
2023-01-08T05:57:23.723Z,995.94
2023-01-08T05:58:23.708Z,996.01
2023-01-08T05:59:23.738Z,996.00
2023-01-08T06:00:23.689Z,995.95
2023-01-08T06:01:23.690Z,995.92
2023-01-08T06:02:23.708Z,995.97
2023-01-08T06:03:23.714Z,995.95
2023-01-08T06:04:23.713Z,995.90
2023-01-08T06:05:23.633Z,995.95
2023-01-08T06:06:23.667Z,995.96
2023-01-08T06:07:23.607Z,995.98
2023-01-08T06:08:23.590Z,995.98
2023-01-08T06:09:23.633Z,996.01
2023-01-08T06:10:23.577Z,995.98
2023-01-08T06:11:23.641Z,996.00
2023-01-08T06:12:23.561Z,996.00
2023-01-08T06:13:23.543Z,995.99
2023-01-08T06:14:23.595Z,996.01
2023-01-08T06:15:23.524Z,995.98
2023-01-08T06:16:23.595Z,996.00
2023-01-08T06:17:23.499Z,996.01
2023-01-08T06:18:23.486Z,996.01
2023-01-08T06:19:23.668Z,996.00
2023-01-08T06:20:23.495Z,996.01
2023-01-08T06:21:23.463Z,995.99
2023-01-08T06:22:23.440Z,996.00
2023-01-08T06:23:23.429Z,996.03
2023-01-08T06:24:23.507Z,996.03
2023-01-08T06:25:23.428Z,996.01
2023-01-08T06:26:23.392Z,996.02
2023-01-08T06:27:23.389Z,996.02
2023-01-08T06:28:23.476Z,996.04
2023-01-08T06:29:23.368Z,996.00
2023-01-08T06:30:23.383Z,995.97
2023-01-08T06:31:23.439Z,996.00
2023-01-08T06:32:23.336Z,996.01
2023-01-08T06:33:23.326Z,995.96
2023-01-08T06:34:23.354Z,995.98
2023-01-08T06:35:23.295Z,995.99
2023-01-08T06:36:23.298Z,996.03
2023-01-08T06:37:23.331Z,995.97
2023-01-08T06:38:23.286Z,996.01
2023-01-08T06:39:23.327Z,995.94
2023-01-08T06:40:23.244Z,995.94
2023-01-08T06:41:23.274Z,995.97
2023-01-08T06:42:23.246Z,995.99
2023-01-08T06:43:24.089Z,995.96
2023-01-08T06:44:23.204Z,995.97
2023-01-08T06:45:23.226Z,995.94
2023-01-08T06:46:23.207Z,995.93
2023-01-08T06:47:23.248Z,996.00
2023-01-08T06:48:23.184Z,996.03
2023-01-08T06:49:23.134Z,995.97
2023-01-08T06:50:23.159Z,995.98
2023-01-08T06:51:23.161Z,996.00
2023-01-08T06:52:23.147Z,995.99
2023-01-08T06:53:23.115Z,995.92
2023-01-08T06:54:23.155Z,995.94
2023-01-08T06:55:23.075Z,995.93
2023-01-08T06:56:23.080Z,995.96
2023-01-08T06:57:23.103Z,995.95
2023-01-08T06:58:23.073Z,995.94
2023-01-08T06:59:23.053Z,995.99
2023-01-08T07:00:23.027Z,996.02
2023-01-08T07:01:30.682Z,996.07
2023-01-08T07:02:25.510Z,996.08
2023-01-08T07:03:23.051Z,996.11
2023-01-08T07:04:23.016Z,996.13
2023-01-08T07:05:23.038Z,996.20
2023-01-08T07:06:22.967Z,996.27
2023-01-08T07:07:22.959Z,996.28
2023-01-08T07:08:22.958Z,996.34
2023-01-08T07:09:22.929Z,996.47
2023-01-08T07:10:23.541Z,996.55
2023-01-08T07:11:22.903Z,996.54
2023-01-08T07:12:22.907Z,996.55
2023-01-08T07:13:22.896Z,996.55
2023-01-08T07:14:22.925Z,996.60
2023-01-08T07:15:22.872Z,996.57
2023-01-08T07:16:22.889Z,996.55
2023-01-08T07:17:22.887Z,996.65
2023-01-08T07:18:22.848Z,996.61
2023-01-08T07:19:22.815Z,996.55
2023-01-08T07:20:22.855Z,996.59
2023-01-08T07:21:22.820Z,996.65
2023-01-08T07:22:22.788Z,996.65
2023-01-08T07:23:22.771Z,996.66
2023-01-08T07:24:22.779Z,996.66
2023-01-08T07:25:24.669Z,996.66
2023-01-08T07:26:22.748Z,996.66
2023-01-08T07:27:22.741Z,996.66
2023-01-08T07:28:22.755Z,996.63
2023-01-08T07:29:22.712Z,996.58
2023-01-08T07:30:29.711Z,996.64
2023-01-08T07:31:23.728Z,996.62
2023-01-08T07:32:22.674Z,996.56
2023-01-08T07:33:22.675Z,996.58
2023-01-08T07:34:22.666Z,996.59
2023-01-08T07:35:22.727Z,996.64
2023-01-08T07:36:22.653Z,996.64
2023-01-08T07:37:22.646Z,996.65
2023-01-08T07:38:22.631Z,996.67
2023-01-08T07:39:22.595Z,996.72
2023-01-08T07:40:22.625Z,996.70
2023-01-08T07:41:22.645Z,996.69
2023-01-08T07:42:22.605Z,996.73
2023-01-08T07:43:22.566Z,996.66
2023-01-08T07:44:22.557Z,996.58
2023-01-08T07:45:22.576Z,996.57
2023-01-08T07:46:22.566Z,996.57
2023-01-08T07:47:22.584Z,996.62
2023-01-08T07:48:22.572Z,996.66
2023-01-08T07:49:22.573Z,996.63
2023-01-08T07:50:22.534Z,996.58
2023-01-08T07:51:22.495Z,996.61
2023-01-08T07:52:22.515Z,996.58
2023-01-08T07:53:22.549Z,996.64
2023-01-08T07:54:22.521Z,996.66
2023-01-08T07:55:22.445Z,996.65
2023-01-08T07:56:22.422Z,996.64
2023-01-08T07:57:22.422Z,996.65
2023-01-08T07:58:22.434Z,996.59
2023-01-08T07:59:22.455Z,996.59
2023-01-08T08:00:22.393Z,996.62
2023-01-08T08:01:22.548Z,996.57
2023-01-08T08:02:22.523Z,996.63
2023-01-08T08:03:22.369Z,996.65
2023-01-08T08:04:22.345Z,996.62
2023-01-08T08:05:22.321Z,996.70
2023-01-08T08:06:22.318Z,996.68
2023-01-08T08:07:22.345Z,996.66
2023-01-08T08:08:22.344Z,996.63
2023-01-08T08:09:22.333Z,996.66
2023-01-08T08:10:22.332Z,996.75
2023-01-08T08:11:23.356Z,996.68
2023-01-08T08:12:22.342Z,996.61
2023-01-08T08:13:22.292Z,996.63
2023-01-08T08:14:22.364Z,996.64
2023-01-08T08:15:22.303Z,996.65
2023-01-08T08:16:22.265Z,996.62
2023-01-08T08:17:22.340Z,996.63
2023-01-08T08:18:22.197Z,996.59
2023-01-08T08:19:22.233Z,996.60
2023-01-08T08:20:22.224Z,996.58
2023-01-08T08:21:22.212Z,996.53
2023-01-08T08:22:22.172Z,996.46
2023-01-08T08:23:22.213Z,996.43
2023-01-08T08:24:22.150Z,996.37
2023-01-08T08:25:22.133Z,996.46
2023-01-08T08:26:22.128Z,996.43
2023-01-08T08:27:22.128Z,996.43
2023-01-08T08:28:26.111Z,996.40
2023-01-08T08:29:22.182Z,996.44
2023-01-08T08:30:22.074Z,996.45
2023-01-08T08:31:22.171Z,996.49
2023-01-08T08:32:22.123Z,996.48
2023-01-08T08:33:22.031Z,996.50
2023-01-08T08:34:22.018Z,996.52
2023-01-08T08:35:22.018Z,996.49
2023-01-08T08:36:22.016Z,996.45
2023-01-08T08:37:21.997Z,996.46
2023-01-08T08:38:23.967Z,996.47
2023-01-08T08:39:21.958Z,996.49
2023-01-08T08:40:22.052Z,996.45
2023-01-08T08:41:21.957Z,996.47
2023-01-08T08:42:21.912Z,996.49
2023-01-08T08:43:21.936Z,996.49
2023-01-08T08:44:21.950Z,996.43
2023-01-08T08:45:21.898Z,996.52
2023-01-08T08:46:21.898Z,996.50
2023-01-08T08:47:21.870Z,996.45
2023-01-08T08:48:21.853Z,996.39
2023-01-08T08:49:21.839Z,996.41
2023-01-08T08:50:21.873Z,996.38
2023-01-08T08:51:21.842Z,996.38
2023-01-08T08:52:21.821Z,996.34
2023-01-08T08:53:21.814Z,996.39
2023-01-08T08:54:21.873Z,996.38
2023-01-08T08:55:21.810Z,996.41
2023-01-08T08:56:21.773Z,996.39
2023-01-08T08:57:21.858Z,996.37
2023-01-08T08:58:21.849Z,996.38
2023-01-08T08:59:21.841Z,996.39
2023-01-08T09:00:23.481Z,996.40
2023-01-08T09:01:21.989Z,996.39
2023-01-08T09:02:21.959Z,996.42
2023-01-08T09:03:22.202Z,996.33
2023-01-08T09:04:21.814Z,996.35
2023-01-08T09:05:21.662Z,996.35
2023-01-08T09:06:21.701Z,996.34
2023-01-08T09:07:21.649Z,996.35
2023-01-08T09:08:21.917Z,996.34
2023-01-08T09:09:21.671Z,996.31
2023-01-08T09:10:21.620Z,996.23
2023-01-08T09:11:21.651Z,996.27
2023-01-08T09:12:21.610Z,996.20
2023-01-08T09:13:21.590Z,996.17
2023-01-08T09:14:21.578Z,996.21
2023-01-08T09:15:21.567Z,996.23
2023-01-08T09:16:21.677Z,996.16
2023-01-08T09:17:21.583Z,996.21
2023-01-08T09:18:21.563Z,996.22
2023-01-08T09:19:21.551Z,996.21
2023-01-08T09:20:21.800Z,996.29
2023-01-08T09:21:21.495Z,996.22
2023-01-08T09:22:21.541Z,996.25
2023-01-08T09:23:21.485Z,996.22
2023-01-08T09:24:21.476Z,996.22
2023-01-08T09:25:21.476Z,996.23
2023-01-08T09:26:21.479Z,996.21
2023-01-08T09:27:21.439Z,996.22
2023-01-08T09:28:21.453Z,996.25
2023-01-08T09:29:21.429Z,996.21
2023-01-08T09:30:21.406Z,996.22
2023-01-08T09:31:21.457Z,996.18
2023-01-08T09:32:21.406Z,996.21
2023-01-08T09:33:21.383Z,996.17
2023-01-08T09:34:21.394Z,996.21
2023-01-08T09:35:21.356Z,996.22
2023-01-08T09:36:21.351Z,996.14
2023-01-08T09:37:21.440Z,996.10
2023-01-08T09:38:21.337Z,996.15
2023-01-08T09:39:21.323Z,996.14
2023-01-08T09:40:21.306Z,996.15
2023-01-08T09:41:21.347Z,996.11
2023-01-08T09:42:21.306Z,996.14
2023-01-08T09:43:21.279Z,996.15
2023-01-08T09:44:21.247Z,996.14
2023-01-08T09:45:21.236Z,996.18
2023-01-08T09:46:21.400Z,996.13
2023-01-08T09:47:21.225Z,996.10
2023-01-08T09:48:21.316Z,996.15
2023-01-08T09:49:21.256Z,996.09
2023-01-08T09:50:21.186Z,996.09
2023-01-08T09:51:21.171Z,996.05
2023-01-08T09:52:21.177Z,996.07
2023-01-08T09:53:21.173Z,996.07
2023-01-08T09:54:21.169Z,996.09
2023-01-08T09:55:21.177Z,996.02
2023-01-08T09:56:21.153Z,996.04
2023-01-08T09:57:21.113Z,996.08
2023-01-08T09:58:21.114Z,996.03
2023-01-08T09:59:21.145Z,996.07
2023-01-08T10:00:28.873Z,996.08
2023-01-08T10:01:21.174Z,996.05
2023-01-08T10:02:21.201Z,996.09
2023-01-08T10:03:21.064Z,996.05
2023-01-08T10:04:21.034Z,996.07
2023-01-08T10:05:21.041Z,996.02
2023-01-08T10:06:21.052Z,996.01
2023-01-08T10:07:21.005Z,996.03
2023-01-08T10:08:20.993Z,995.99
2023-01-08T10:09:20.974Z,996.06
2023-01-08T10:10:20.970Z,995.97
2023-01-08T10:11:20.956Z,995.90
2023-01-08T10:12:20.994Z,995.96
2023-01-08T10:13:20.963Z,995.93
2023-01-08T10:14:20.960Z,995.94
2023-01-08T10:15:20.905Z,995.94
2023-01-08T10:16:20.990Z,995.86
2023-01-08T10:17:20.893Z,995.87
2023-01-08T10:18:20.906Z,995.84
2023-01-08T10:19:20.868Z,995.85
2023-01-08T10:20:20.861Z,995.85
2023-01-08T10:21:20.916Z,995.85
2023-01-08T10:22:20.907Z,995.80
2023-01-08T10:23:20.823Z,995.79
2023-01-08T10:24:20.813Z,995.75
2023-01-08T10:25:20.807Z,995.67
2023-01-08T10:26:20.793Z,995.62
2023-01-08T10:27:20.835Z,995.71
2023-01-08T10:28:20.814Z,995.62
2023-01-08T10:29:20.800Z,995.66
2023-01-08T10:30:20.753Z,995.62
2023-01-08T10:31:20.770Z,995.60
2023-01-08T10:32:20.741Z,995.60
2023-01-08T10:33:20.743Z,995.63
2023-01-08T10:34:22.451Z,995.62
2023-01-08T10:35:20.706Z,995.59
2023-01-08T10:36:20.683Z,995.58
2023-01-08T10:37:20.673Z,995.54
2023-01-08T10:38:20.662Z,995.58
2023-01-08T10:39:20.670Z,995.52
2023-01-08T10:40:20.688Z,995.54
2023-01-08T10:41:20.691Z,995.52
2023-01-08T10:42:20.616Z,995.56
2023-01-08T10:43:20.602Z,995.56
2023-01-08T10:44:25.733Z,995.54
2023-01-08T10:45:20.582Z,995.54
2023-01-08T10:46:20.575Z,995.51
2023-01-08T10:47:20.804Z,995.43
2023-01-08T10:48:20.552Z,995.48
2023-01-08T10:49:20.592Z,995.48
2023-01-08T10:50:20.522Z,995.47
2023-01-08T10:51:20.532Z,995.42
2023-01-08T10:52:24.921Z,995.36
2023-01-08T10:53:20.501Z,995.33
2023-01-08T10:54:20.553Z,995.29
2023-01-08T10:55:20.472Z,995.27
2023-01-08T10:56:20.462Z,995.30
2023-01-08T10:57:20.453Z,995.27
2023-01-08T10:58:20.480Z,995.27
2023-01-08T10:59:20.437Z,995.30
2023-01-08T11:00:20.485Z,995.25
2023-01-08T11:01:20.497Z,995.29
2023-01-08T11:02:20.463Z,995.24
2023-01-08T11:03:20.515Z,995.23
2023-01-08T11:04:20.375Z,995.22
2023-01-08T11:05:20.369Z,995.18
2023-01-08T11:06:20.352Z,995.22
2023-01-08T11:07:20.341Z,995.15
2023-01-08T11:08:22.899Z,995.15
2023-01-08T11:09:20.632Z,995.18
2023-01-08T11:10:20.406Z,995.12
2023-01-08T11:11:20.372Z,995.06
2023-01-08T11:12:20.299Z,995.10
2023-01-08T11:13:20.317Z,995.04
2023-01-08T11:14:20.282Z,995.03
2023-01-08T11:15:20.303Z,994.98
2023-01-08T11:16:20.320Z,995.01
2023-01-08T11:17:20.258Z,995.00
2023-01-08T11:18:20.380Z,994.97
2023-01-08T11:19:20.641Z,994.92
2023-01-08T11:20:20.246Z,994.93
2023-01-08T11:21:20.221Z,994.92
2023-01-08T11:22:20.219Z,994.98
2023-01-08T11:23:20.665Z,994.90
2023-01-08T11:24:20.221Z,994.90
2023-01-08T11:25:20.170Z,994.87
2023-01-08T11:26:20.204Z,994.85
2023-01-08T11:27:20.136Z,994.91
2023-01-08T11:28:20.111Z,994.91
2023-01-08T11:29:20.272Z,994.80
2023-01-08T11:30:20.154Z,994.74
2023-01-08T11:31:20.109Z,994.77
2023-01-08T11:32:20.450Z,994.80
2023-01-08T11:33:20.134Z,994.79
2023-01-08T11:34:20.092Z,994.71
2023-01-08T11:35:20.103Z,994.71
2023-01-08T11:36:20.085Z,994.69
2023-01-08T11:37:20.031Z,994.71
2023-01-08T11:38:20.153Z,994.67
2023-01-08T11:39:20.089Z,994.68
2023-01-08T11:40:20.011Z,994.70
2023-01-08T11:41:20.105Z,994.64
2023-01-08T11:42:20.059Z,994.61
2023-01-08T11:43:20.018Z,994.56
2023-01-08T11:44:20.005Z,994.55
2023-01-08T11:45:20.020Z,994.60
2023-01-08T11:46:20.008Z,994.53
2023-01-08T11:47:20.022Z,994.57
2023-01-08T11:48:19.903Z,994.51
2023-01-08T11:49:19.979Z,994.44
2023-01-08T11:50:19.900Z,994.43
2023-01-08T11:51:19.870Z,994.43
2023-01-08T11:52:19.863Z,994.40
2023-01-08T11:53:19.891Z,994.38
2023-01-08T11:54:19.894Z,994.35
2023-01-08T11:55:19.837Z,994.30
2023-01-08T11:56:19.861Z,994.27
2023-01-08T11:57:19.799Z,994.31
2023-01-08T11:58:19.813Z,994.29
2023-01-08T11:59:19.808Z,994.28
2023-01-08T12:00:19.835Z,994.21
2023-01-08T12:01:19.789Z,994.16
2023-01-08T12:02:19.791Z,994.15
2023-01-08T12:03:19.826Z,994.08
2023-01-08T12:04:19.753Z,994.08
2023-01-08T12:05:19.721Z,994.09
2023-01-08T12:06:19.719Z,994.02
2023-01-08T12:07:19.720Z,994.06
2023-01-08T12:08:19.770Z,994.07
2023-01-08T12:09:19.755Z,993.98
2023-01-08T12:10:19.681Z,994.00
2023-01-08T12:11:19.697Z,993.98
2023-01-08T12:12:19.638Z,994.00
2023-01-08T12:13:19.802Z,993.98
2023-01-08T12:14:19.626Z,993.95
2023-01-08T12:15:19.610Z,993.90
2023-01-08T12:16:19.616Z,993.92
2023-01-08T12:17:19.626Z,993.90
2023-01-08T12:18:19.620Z,993.89
2023-01-08T12:19:19.660Z,993.87
2023-01-08T12:20:19.566Z,993.84
2023-01-08T12:21:19.632Z,993.81
2023-01-08T12:22:19.544Z,993.79
2023-01-08T12:23:19.533Z,993.83
2023-01-08T12:24:19.567Z,993.75
2023-01-08T12:25:19.552Z,993.74
2023-01-08T12:26:19.519Z,993.80
2023-01-08T12:27:19.510Z,993.73
2023-01-08T12:28:19.479Z,993.72